Airports

 

 

Airport Name Latest METAR Visual Conditions
Atlanta International (ATL) KATL 282352Z 20006KT 10SM FEW045 FEW080 SCT180 BKN250 23/15 A3001 RMK AO2 SLP157 T02280150 10261 20228 56009 VFR
Asheville Regional (AVL) KAVL 282354Z 17006KT 10SM OVC055 18/13 A3002 RMK AO2 SLP150 T01780133 10222 20178 58007 VFR
Birmingham International (BHM) KBHM 282353Z 19012G17KT 10SM FEW060 SCT250 25/14 A2997 RMK AO2 SLP142 T02500144 10278 20250 56009 VFR
Chattanooga (CHA) KCHA 282353Z 18005KT 10SM FEW070 BKN100 BKN150 OVC250 23/16 A2992 RMK AO2 SLP126 T02280156 10250 20228 56014 VFR
Charlotte International (CLT) KCLT 282352Z 22006KT 10SM FEW080 BKN200 21/14 A2999 RMK AO2 SLP153 T02110144 10244 20183 56009 $ VFR
Greensboro Piedmont-Triad (GSO) KGSO 282354Z 23009KT 10SM BKN220 20/13 A2996 RMK AO2 SLP140 T02000133 10217 20139 56009 VFR
Greenville-Spartanburg International (GSP) KGSP 282353Z AUTO 21005KT 10SM CLR 19/13 A3000 RMK AO2 SLP154 T01890128 10233 20189 55015 VFR
Middle Georgia Regional Airport (MCN) KMCN 282353Z 18006KT 10SM CLR 23/16 A3003 RMK AO2 SLP165 T02330156 10283 20233 56009 VFR
Tri-Cities Airport (TRI) KTRI 282353Z 21006KT 10SM OVC060 19/13 A2993 RMK AO2 SLP119 T01940133 10244 20194 56004 VFR
Knoxville Regional (TYS) KTYS 282353Z 20012KT 10SM BKN070 BKN110 OVC200 21/14 A2989 RMK AO2 SLP116 T02110144 10239 20206 56020 VFR